Fremington, United Kingdom

11:04 AM BST on August 20, 2014 (GMT +0100)
Fremington | Change Station
CLOSE
Current Station
Personal Weather Station
Location: Barnstaple, DEVON
Elevation: 79 ft
Nearby Weather Stations

Elev 79 ft 51.07 °N, 4.13 °W | Updated 1 second ago

Scattered Clouds
Scattered Clouds
60.6 °F
Feels Like 60.6 °F
N
4.4
Wind Variable Wind from NNW
Gusts 7.6 mph

Today
High -- | Low -- °F
--% Chance of Precip.
Yesterday
High -- | Low -- °F
Precip. -- in
6:10 AM 8:28 PM
Waning Crescent, 23% visible
Pressure 30.06 in
Visibility 6.2 miles
Clouds Scattered Clouds 3200 ft
Dew Point 48 °F
Humidity 64%
Rainfall 0.07 in
Snow Depth Not available.
UV 1.0 out of 12
Pollen Not available.
Air Quality Not available.
Flu Activity Not available.
METAR EGDX 200950Z 32006KT 9999 SCT032 15/07 Q1018 BLU

More Conditions Fewer Conditions

Pressure 30.06 in
Visibility 6.2 miles
Clouds Scattered Clouds 3200 ft
Dew Point 48 °F
Humidity 64%
Rainfall 0.07 in
Snow Depth Not available.
UV 1.0 out of 12
Pollen Not available.
Air Quality Not available.
Flu Activity Not available.
METAR EGDX 200950Z 32006KT 9999 SCT032 15/07 Q1018 BLU

More Conditions Fewer Conditions

10-Day Weather Forecast

Almanac

Astronomy

Aug. 20, 2014 Rise Set
Actual Time 6:10 AM BST 8:28 PM BST
Civil Twilight 5:34 AM BST 9:04 PM BST
Nautical Twilight 4:48 AM BST 9:49 PM BST
Astronomical Twilight 3:55 AM BST 10:42 PM BST
Moon 1:26 AM BST 5:14 PM BST
Length of Visible Light 15h 29m
Length of Day
14h 17m
Tomorrow will be 3m 38s shorter.
Waning Crescent, 23% of the Moon is Illuminated
Today
Waning Crescent
Aug 25
New
Sep 2
First Quarter
Sep 8
Full
Sep 15
Last Quarter

Yesterday's Extremes

Country Highs Country Lows

Community

WunderPhotos

Upload Photos

1,745,604 photos uploaded!

Nearby

Snow Depth

Not available.

Earthquake Activity

City Distance Mag. Time & Date
No recent earthquake activity has been reported nearby.
Minimum magnitude displayed is 2.5.

Coastal Water Temperatures

Place Temperature
No Stations Reporting

Nearby Weather Stations